createdAt,value
2023-05-09T00:01:54.043Z,1.80
2023-05-09T00:04:21.960Z,2.00
2023-05-09T00:06:49.607Z,1.98
2023-05-09T00:09:17.316Z,1.77
2023-05-09T00:11:45.208Z,2.00
2023-05-09T00:14:14.021Z,1.63
2023-05-09T00:16:41.567Z,1.90
2023-05-09T00:19:09.919Z,1.90
2023-05-09T00:21:37.409Z,1.90
2023-05-09T00:24:05.791Z,2.30
2023-05-09T00:26:33.545Z,2.17
2023-05-09T00:29:01.063Z,2.03
2023-05-09T00:31:28.660Z,2.30
2023-05-09T00:33:56.487Z,1.90
2023-05-09T00:36:24.088Z,2.40
2023-05-09T00:38:51.570Z,2.03
2023-05-09T00:41:19.408Z,2.20
2023-05-09T00:43:47.085Z,2.10
2023-05-09T00:46:14.637Z,2.25
2023-05-09T00:48:42.519Z,1.98
2023-05-09T00:51:10.269Z,1.80
2023-05-09T00:53:37.898Z,1.90
2023-05-09T00:56:06.523Z,1.70
2023-05-09T00:58:34.053Z,2.00
2023-05-09T01:01:03.753Z,1.90
2023-05-09T01:03:31.877Z,2.10
2023-05-09T01:06:03.381Z,1.98
2023-05-09T01:08:52.840Z,2.00
2023-05-09T01:11:30.241Z,1.60
2023-05-09T01:14:35.760Z,2.08
2023-05-09T01:17:32.651Z,1.87
2023-05-09T01:20:19.703Z,2.00
2023-05-09T01:22:55.784Z,2.00
2023-05-09T01:25:48.052Z,2.22
2023-05-09T01:28:40.275Z,2.00
2023-05-09T01:31:09.043Z,2.10
2023-05-09T01:33:39.405Z,2.25
2023-05-09T01:36:11.396Z,2.05
2023-05-09T01:38:40.496Z,2.55
2023-05-09T01:41:09.814Z,2.90
2023-05-09T01:43:38.948Z,2.90
2023-05-09T01:46:07.206Z,2.47
2023-05-09T01:48:36.272Z,2.75
2023-05-09T01:51:05.555Z,2.53
2023-05-09T01:53:33.726Z,2.85
2023-05-09T01:56:03.370Z,2.40
2023-05-09T01:58:32.555Z,2.33
2023-05-09T02:01:01.055Z,2.30
2023-05-09T02:03:29.259Z,2.28
2023-05-09T02:05:57.005Z,2.60
2023-05-09T02:08:24.584Z,2.47
2023-05-09T02:10:53.180Z,2.40
2023-05-09T02:13:21.084Z,2.58
2023-05-09T02:15:49.029Z,2.30
2023-05-09T02:18:17.761Z,2.20
2023-05-09T02:20:45.449Z,2.43
2023-05-09T02:23:13.288Z,2.37
2023-05-09T02:25:41.319Z,2.70
2023-05-09T02:28:10.192Z,2.72
2023-05-09T02:30:42.262Z,2.80
2023-05-09T02:33:12.077Z,3.00
2023-05-09T02:35:45.094Z,2.72
2023-05-09T02:38:13.820Z,2.85
2023-05-09T02:40:43.050Z,2.40
2023-05-09T02:43:10.877Z,2.40
2023-05-09T02:45:38.802Z,2.37
2023-05-09T02:48:09.040Z,2.47
2023-05-09T02:50:38.447Z,2.67
2023-05-09T02:53:06.530Z,2.50
2023-05-09T02:55:34.299Z,2.55
2023-05-09T02:58:11.870Z,2.50
2023-05-09T03:00:41.170Z,2.65
2023-05-09T03:03:09.344Z,2.58
2023-05-09T03:05:37.444Z,3.03
2023-05-09T03:08:05.518Z,2.80
2023-05-09T03:10:34.367Z,2.53
2023-05-09T03:13:01.937Z,2.95
2023-05-09T03:15:29.847Z,2.40
2023-05-09T03:17:58.431Z,2.72
2023-05-09T03:20:27.062Z,2.92
2023-05-09T03:22:54.874Z,2.90
2023-05-09T03:25:22.589Z,2.67
2023-05-09T03:27:50.142Z,3.08
2023-05-09T03:30:18.842Z,2.62
2023-05-09T03:32:46.723Z,2.35
2023-05-09T03:35:14.475Z,2.80
2023-05-09T03:37:42.371Z,2.40
2023-05-09T03:40:10.518Z,2.05
2023-05-09T03:42:39.470Z,2.65
2023-05-09T03:45:07.794Z,2.83
2023-05-09T03:47:35.345Z,2.70
2023-05-09T03:50:04.267Z,2.53
2023-05-09T03:52:32.611Z,2.78
2023-05-09T03:55:00.403Z,2.55
2023-05-09T03:57:28.667Z,2.80
2023-05-09T03:59:58.322Z,2.60
2023-05-09T04:02:26.549Z,2.45
2023-05-09T04:04:54.885Z,2.28
2023-05-09T04:07:22.952Z,2.50
2023-05-09T04:09:50.619Z,2.12
2023-05-09T04:12:18.559Z,2.53
2023-05-09T04:14:48.190Z,2.30
2023-05-09T04:17:17.185Z,2.60
2023-05-09T04:19:45.861Z,2.83
2023-05-09T04:22:13.378Z,2.28
2023-05-09T04:24:41.212Z,2.43
2023-05-09T04:27:10.135Z,2.60
2023-05-09T04:29:39.040Z,2.28
2023-05-09T04:32:06.561Z,2.80
2023-05-09T04:34:35.309Z,2.58
2023-05-09T04:37:03.546Z,2.90
2023-05-09T04:39:32.252Z,2.87
2023-05-09T04:42:01.164Z,3.10
2023-05-09T04:44:29.024Z,2.45
2023-05-09T04:46:58.103Z,2.42
2023-05-09T04:49:26.161Z,2.47
2023-05-09T04:51:53.682Z,2.20
2023-05-09T04:54:21.471Z,2.42
2023-05-09T04:56:53.103Z,2.05
2023-05-09T04:59:21.458Z,2.08
2023-05-09T05:01:50.570Z,2.33
2023-05-09T05:04:18.754Z,2.50
2023-05-09T05:06:46.329Z,2.20
2023-05-09T05:09:14.162Z,1.92
2023-05-09T05:11:53.190Z,2.22
2023-05-09T05:14:26.662Z,2.00
2023-05-09T05:16:54.275Z,1.90
2023-05-09T05:19:23.520Z,1.98
2023-05-09T05:21:51.385Z,2.15
2023-05-09T05:24:18.943Z,1.87
2023-05-09T05:26:46.928Z,2.27
2023-05-09T05:29:14.993Z,2.20
2023-05-09T05:31:42.610Z,1.87
2023-05-09T05:34:10.230Z,1.67
2023-05-09T05:36:38.434Z,1.75
2023-05-09T05:39:06.236Z,1.70
2023-05-09T05:41:33.692Z,2.10
2023-05-09T05:44:02.086Z,1.42
2023-05-09T05:46:29.602Z,2.00
2023-05-09T05:48:57.428Z,1.70
2023-05-09T05:51:25.671Z,1.90
2023-05-09T05:53:53.802Z,1.55
2023-05-09T05:56:22.733Z,1.62
2023-05-09T05:58:50.826Z,1.30
2023-05-09T06:01:18.426Z,1.40
2023-05-09T06:03:46.405Z,1.57
2023-05-09T06:06:14.270Z,1.50
2023-05-09T06:08:42.437Z,1.17
2023-05-09T06:11:10.250Z,1.40
2023-05-09T06:13:38.899Z,1.30
2023-05-09T06:16:18.573Z,1.30
2023-05-09T06:18:48.718Z,1.25
2023-05-09T06:21:16.233Z,1.40
2023-05-09T06:24:01.277Z,1.25
2023-05-09T06:26:31.662Z,1.23
2023-05-09T06:28:59.372Z,1.20
2023-05-09T06:31:27.147Z,1.37
2023-05-09T06:33:54.949Z,1.20
2023-05-09T06:36:22.425Z,1.20
2023-05-09T06:38:49.864Z,1.50
2023-05-09T06:41:17.676Z,1.17
2023-05-09T06:43:45.694Z,1.48
2023-05-09T06:46:13.280Z,1.48
2023-05-09T06:48:41.088Z,2.00
2023-05-09T06:51:09.306Z,1.50
2023-05-09T06:53:37.108Z,1.50
2023-05-09T06:56:05.315Z,1.33
2023-05-09T06:58:32.797Z,1.37
2023-05-09T07:01:00.302Z,1.30
2023-05-09T07:03:28.174Z,1.40
2023-05-09T07:05:58.789Z,1.30
2023-05-09T07:08:26.911Z,1.40
2023-05-09T07:10:54.691Z,1.27
2023-05-09T07:13:24.881Z,1.50
2023-05-09T07:15:52.404Z,1.30
2023-05-09T07:18:20.313Z,1.40
2023-05-09T07:20:47.950Z,1.70
2023-05-09T07:23:15.524Z,1.33
2023-05-09T07:25:45.196Z,1.35
2023-05-09T07:28:12.840Z,1.40
2023-05-09T07:30:40.539Z,1.70
2023-05-09T07:33:08.388Z,1.62
2023-05-09T07:35:36.060Z,1.35
2023-05-09T07:38:06.364Z,1.55
2023-05-09T07:40:36.492Z,1.50
2023-05-09T07:43:04.336Z,1.40
2023-05-09T07:45:31.983Z,1.25
2023-05-09T07:47:59.927Z,1.40
2023-05-09T07:50:27.605Z,1.17
2023-05-09T07:52:55.739Z,1.30
2023-05-09T07:55:23.579Z,1.60
2023-05-09T07:57:51.156Z,1.58
2023-05-09T08:00:23.497Z,1.10
2023-05-09T08:02:51.921Z,0.80
2023-05-09T08:05:19.754Z,1.00
2023-05-09T08:07:47.226Z,0.90
2023-05-09T08:10:15.143Z,1.02
2023-05-09T08:12:42.756Z,1.00
2023-05-09T08:15:10.732Z,1.08
2023-05-09T08:17:38.595Z,1.05
2023-05-09T08:20:07.916Z,0.87
2023-05-09T08:22:35.859Z,1.05
2023-05-09T08:25:03.688Z,1.00
2023-05-09T08:27:31.313Z,0.80
2023-05-09T08:29:58.889Z,1.12
2023-05-09T08:32:26.790Z,0.90
2023-05-09T08:34:54.370Z,0.80
2023-05-09T08:37:21.958Z,0.73
2023-05-09T08:39:49.774Z,0.82
2023-05-09T08:42:20.533Z,1.10
2023-05-09T08:44:48.707Z,0.83
2023-05-09T08:47:16.811Z,0.80
2023-05-09T08:49:45.419Z,0.93
2023-05-09T08:52:13.825Z,0.90
2023-05-09T08:54:41.732Z,0.82
2023-05-09T08:57:09.265Z,0.90
2023-05-09T08:59:38.207Z,0.70
2023-05-09T09:02:07.613Z,0.70
2023-05-09T09:04:35.630Z,0.75
2023-05-09T09:07:04.532Z,0.90
2023-05-09T09:09:33.851Z,0.97
2023-05-09T09:12:03.538Z,0.70
2023-05-09T09:14:31.619Z,0.57
2023-05-09T09:17:00.082Z,0.50
2023-05-09T09:19:31.607Z,0.77
2023-05-09T09:22:00.152Z,0.70
2023-05-09T09:24:27.793Z,0.70
2023-05-09T09:26:55.636Z,0.80
2023-05-09T09:29:24.563Z,0.80
2023-05-09T09:31:55.251Z,0.65
2023-05-09T09:34:23.667Z,0.80
2023-05-09T09:36:51.601Z,0.73
2023-05-09T09:39:19.470Z,0.70
2023-05-09T09:41:47.270Z,0.88
2023-05-09T09:44:16.986Z,0.73
2023-05-09T09:46:57.166Z,0.67
2023-05-09T09:49:27.776Z,0.70
2023-05-09T09:51:56.752Z,0.60
2023-05-09T09:54:27.972Z,0.88
2023-05-09T09:56:56.598Z,0.65
2023-05-09T09:59:25.860Z,0.77
2023-05-09T10:02:07.613Z,0.75
2023-05-09T10:04:37.562Z,0.80
2023-05-09T10:07:07.357Z,0.80
2023-05-09T10:09:35.882Z,0.50
2023-05-09T10:12:06.365Z,0.73
2023-05-09T10:14:35.815Z,0.90
2023-05-09T10:17:05.270Z,0.70
2023-05-09T10:19:33.719Z,0.85
2023-05-09T10:22:10.189Z,0.80
2023-05-09T10:24:44.066Z,1.97
2023-05-09T10:27:12.149Z,3.30
2023-05-09T10:29:49.953Z,1.83
2023-05-09T10:32:52.565Z,1.15
2023-05-09T10:35:25.393Z,0.70
2023-05-09T10:37:53.362Z,0.87
2023-05-09T10:40:21.413Z,0.82
2023-05-09T10:42:49.041Z,0.60
2023-05-09T10:45:17.268Z,0.70
2023-05-09T10:47:46.458Z,0.90
2023-05-09T10:50:14.701Z,0.90
2023-05-09T10:53:04.213Z,0.70
2023-05-09T10:55:47.410Z,0.60
2023-05-09T10:58:36.218Z,0.70
2023-05-09T11:01:05.101Z,1.00
2023-05-09T11:03:58.418Z,0.73
2023-05-09T11:06:49.111Z,0.55
2023-05-09T11:09:38.208Z,0.85
2023-05-09T11:12:06.367Z,0.90
2023-05-09T11:14:47.773Z,1.70
2023-05-09T11:17:38.698Z,1.40
2023-05-09T11:20:07.088Z,0.90
2023-05-09T11:22:43.304Z,0.77
2023-05-09T11:25:13.261Z,1.05
2023-05-09T11:27:43.770Z,1.00
2023-05-09T11:30:14.651Z,0.70
2023-05-09T11:32:55.321Z,0.90
2023-05-09T11:35:23.723Z,0.70
2023-05-09T11:38:03.969Z,0.70
2023-05-09T11:40:33.038Z,0.70
2023-05-09T11:43:02.347Z,1.03
2023-05-09T11:45:31.859Z,1.50
2023-05-09T11:48:01.102Z,0.90
2023-05-09T11:50:29.414Z,0.93
2023-05-09T11:52:57.307Z,0.80
2023-05-09T11:55:30.340Z,1.03
2023-05-09T11:58:00.980Z,1.10
2023-05-09T12:00:31.880Z,1.00
2023-05-09T12:02:59.888Z,0.88
2023-05-09T12:05:28.260Z,1.30
2023-05-09T12:07:55.916Z,0.87
2023-05-09T12:10:25.749Z,1.23
2023-05-09T12:12:55.782Z,0.90
2023-05-09T12:15:24.289Z,1.30
2023-05-09T12:18:05.821Z,1.10
2023-05-09T12:21:00.023Z,0.90
2023-05-09T12:23:27.569Z,0.88
2023-05-09T12:25:56.485Z,0.80
2023-05-09T12:28:24.666Z,1.08
2023-05-09T12:30:53.265Z,1.15
2023-05-09T12:33:21.351Z,0.80
2023-05-09T12:36:03.237Z,0.70
2023-05-09T12:38:31.610Z,1.30
2023-05-09T12:41:03.953Z,0.88
2023-05-09T12:43:33.378Z,0.88
2023-05-09T12:46:02.343Z,0.83
2023-05-09T12:48:31.591Z,1.10
2023-05-09T12:51:03.073Z,0.85
2023-05-09T12:53:35.451Z,0.90
2023-05-09T12:56:04.601Z,0.93
2023-05-09T12:58:32.935Z,0.80
2023-05-09T13:01:03.859Z,0.90
2023-05-09T13:03:37.831Z,0.90
2023-05-09T13:06:15.637Z,0.90
2023-05-09T13:08:43.541Z,1.00
2023-05-09T13:11:16.449Z,0.80
2023-05-09T13:13:45.107Z,0.95
2023-05-09T13:16:14.292Z,1.40
2023-05-09T13:18:44.394Z,1.02
2023-05-09T13:21:12.154Z,1.08
2023-05-09T13:23:39.729Z,0.90
2023-05-09T13:26:07.416Z,1.00
2023-05-09T13:28:35.358Z,1.12
2023-05-09T13:31:04.073Z,0.98
2023-05-09T13:33:34.663Z,1.75
2023-05-09T13:36:02.493Z,0.90
2023-05-09T13:38:32.156Z,1.02
2023-05-09T13:41:00.300Z,0.90
2023-05-09T13:43:28.208Z,0.98
2023-05-09T13:45:55.792Z,0.90
2023-05-09T13:48:23.370Z,0.87
2023-05-09T13:50:51.307Z,0.98
2023-05-09T13:53:18.813Z,1.00
2023-05-09T13:55:46.430Z,0.85
2023-05-09T13:58:14.203Z,0.75
2023-05-09T14:00:41.998Z,0.80
2023-05-09T14:03:09.869Z,0.73
2023-05-09T14:05:37.375Z,1.00
2023-05-09T14:08:05.059Z,1.10
2023-05-09T14:10:33.204Z,1.40
2023-05-09T14:13:00.856Z,0.80
2023-05-09T14:15:29.570Z,0.90
2023-05-09T14:17:57.432Z,0.82
2023-05-09T14:20:25.004Z,1.02
2023-05-09T14:22:55.064Z,1.05
2023-05-09T14:25:22.925Z,0.70
2023-05-09T14:27:50.448Z,1.05
2023-05-09T14:30:18.009Z,0.80
2023-05-09T14:32:45.824Z,0.80
2023-05-09T14:35:13.472Z,1.10
2023-05-09T14:37:41.495Z,0.90
2023-05-09T14:40:09.813Z,1.10
2023-05-09T14:42:37.336Z,0.80
2023-05-09T14:45:07.265Z,1.10
2023-05-09T14:47:35.119Z,0.82
2023-05-09T14:50:03.170Z,0.80
2023-05-09T14:52:33.745Z,0.90
2023-05-09T14:55:01.641Z,0.70
2023-05-09T14:57:29.177Z,0.80
2023-05-09T15:00:03.095Z,0.68
2023-05-09T15:02:37.378Z,0.90
2023-05-09T15:05:05.369Z,0.70
2023-05-09T15:07:32.935Z,0.62
2023-05-09T15:10:01.513Z,0.80
2023-05-09T15:12:29.482Z,0.90
2023-05-09T15:15:17.654Z,0.60
2023-05-09T15:17:46.267Z,0.62
2023-05-09T15:20:15.645Z,0.70
2023-05-09T15:22:44.415Z,0.93
2023-05-09T15:25:12.500Z,1.00
2023-05-09T15:27:40.513Z,0.80
2023-05-09T15:30:08.852Z,0.90
2023-05-09T15:32:42.962Z,0.90
2023-05-09T15:35:10.745Z,0.80
2023-05-09T15:37:38.683Z,0.88
2023-05-09T15:40:07.905Z,0.93
2023-05-09T15:42:35.968Z,0.70
2023-05-09T15:45:04.229Z,1.00
2023-05-09T15:47:31.801Z,0.80
2023-05-09T15:49:59.411Z,0.70
2023-05-09T15:52:27.864Z,0.70
2023-05-09T15:54:56.053Z,0.80
2023-05-09T15:57:24.881Z,0.90
2023-05-09T15:59:55.236Z,0.70
2023-05-09T16:02:23.196Z,0.80
2023-05-09T16:04:51.089Z,0.80
2023-05-09T16:07:20.417Z,0.70
2023-05-09T16:09:48.087Z,0.85
2023-05-09T16:12:16.037Z,1.00
2023-05-09T16:14:43.610Z,0.70
2023-05-09T16:17:11.493Z,0.83
2023-05-09T16:19:39.362Z,0.85
2023-05-09T16:22:06.875Z,0.75
2023-05-09T16:24:34.543Z,1.10
2023-05-09T16:27:02.325Z,0.80
2023-05-09T16:29:30.014Z,1.17
2023-05-09T16:31:57.488Z,0.85
2023-05-09T16:34:25.426Z,0.88
2023-05-09T16:36:52.881Z,0.80
2023-05-09T16:39:20.963Z,0.80
2023-05-09T16:41:48.775Z,0.90
2023-05-09T16:44:16.837Z,0.90
2023-05-09T16:46:44.606Z,0.80
2023-05-09T16:49:15.023Z,0.62
2023-05-09T16:51:43.494Z,0.70
2023-05-09T16:54:11.058Z,0.70
2023-05-09T16:56:39.123Z,0.70
2023-05-09T16:59:06.569Z,0.90
2023-05-09T17:01:34.252Z,0.82
2023-05-09T17:04:02.379Z,0.90
2023-05-09T17:06:29.981Z,0.80
2023-05-09T17:08:57.945Z,0.80
2023-05-09T17:11:26.772Z,0.98
2023-05-09T17:13:54.303Z,0.52
2023-05-09T17:16:22.128Z,1.00
2023-05-09T17:18:50.114Z,0.77
2023-05-09T17:21:18.052Z,0.80
2023-05-09T17:23:45.567Z,0.60
2023-05-09T17:26:13.411Z,0.80
2023-05-09T17:28:40.941Z,1.00
2023-05-09T17:31:08.549Z,0.90
2023-05-09T17:33:36.480Z,0.70
2023-05-09T17:36:04.223Z,0.90
2023-05-09T17:38:32.421Z,1.15
2023-05-09T17:41:00.274Z,0.80
2023-05-09T17:43:28.508Z,1.00
2023-05-09T17:45:56.064Z,0.85
2023-05-09T17:48:24.398Z,0.90
2023-05-09T17:50:51.957Z,0.95
2023-05-09T17:53:19.598Z,0.95
2023-05-09T17:55:47.830Z,1.00
2023-05-09T17:58:15.354Z,1.00
2023-05-09T18:00:43.024Z,0.73
2023-05-09T18:03:10.903Z,1.08
2023-05-09T18:05:38.725Z,0.98
2023-05-09T18:08:06.502Z,1.30
2023-05-09T18:10:34.378Z,0.80
2023-05-09T18:13:02.111Z,1.00
2023-05-09T18:15:29.739Z,0.70
2023-05-09T18:17:59.046Z,1.00
2023-05-09T18:20:26.622Z,1.00
2023-05-09T18:22:54.476Z,1.00
2023-05-09T18:25:22.531Z,0.98
2023-05-09T18:27:50.328Z,0.90
2023-05-09T18:30:18.716Z,0.85
2023-05-09T18:32:47.154Z,1.07
2023-05-09T18:35:15.052Z,0.90
2023-05-09T18:37:43.124Z,0.95
2023-05-09T18:40:15.312Z,0.70
2023-05-09T18:42:43.335Z,1.10
2023-05-09T18:45:11.860Z,1.10
2023-05-09T18:47:39.657Z,0.88
2023-05-09T18:50:07.949Z,0.90
2023-05-09T18:52:36.222Z,1.08
2023-05-09T18:55:05.995Z,1.12
2023-05-09T18:57:34.059Z,1.67
2023-05-09T19:00:02.566Z,0.80
2023-05-09T19:02:30.737Z,0.98
2023-05-09T19:05:00.709Z,1.17
2023-05-09T19:07:29.212Z,0.95
2023-05-09T19:09:57.035Z,1.30
2023-05-09T19:12:25.010Z,1.08
2023-05-09T19:14:53.593Z,1.00
2023-05-09T19:17:21.652Z,1.02
2023-05-09T19:19:49.733Z,1.50
2023-05-09T19:22:18.430Z,1.07
2023-05-09T19:24:46.478Z,1.30
2023-05-09T19:27:14.460Z,1.00
2023-05-09T19:29:42.664Z,1.10
2023-05-09T19:32:10.776Z,1.10
2023-05-09T19:34:38.617Z,1.00
2023-05-09T19:37:06.849Z,1.10
2023-05-09T19:39:34.869Z,1.15
2023-05-09T19:42:02.994Z,1.20
2023-05-09T19:44:31.151Z,1.17
2023-05-09T19:47:00.954Z,1.10
2023-05-09T19:49:28.943Z,1.00
2023-05-09T19:51:57.143Z,1.33
2023-05-09T19:54:28.146Z,0.98
2023-05-09T19:56:55.953Z,0.98
2023-05-09T19:59:23.853Z,1.00
2023-05-09T20:01:51.471Z,1.33
2023-05-09T20:04:21.824Z,1.10
2023-05-09T20:06:49.523Z,1.30
2023-05-09T20:09:20.893Z,1.00
2023-05-09T20:11:48.731Z,1.20
2023-05-09T20:14:16.352Z,1.02
2023-05-09T20:16:44.205Z,1.08
2023-05-09T20:19:14.001Z,0.90
2023-05-09T20:21:41.581Z,1.00
2023-05-09T20:24:09.238Z,1.40
2023-05-09T20:26:37.194Z,0.95
2023-05-09T20:29:04.968Z,1.10
2023-05-09T20:31:32.651Z,0.90
2023-05-09T20:34:00.726Z,1.25
2023-05-09T20:36:28.653Z,1.07
2023-05-09T20:38:57.393Z,1.40
2023-05-09T20:41:25.577Z,1.50
2023-05-09T20:43:53.224Z,0.90
2023-05-09T20:46:20.825Z,1.02
2023-05-09T20:48:48.798Z,1.13
2023-05-09T20:51:16.249Z,1.12
2023-05-09T20:53:43.708Z,1.10
2023-05-09T20:56:11.563Z,1.10
2023-05-09T20:58:39.136Z,1.17
2023-05-09T21:01:06.784Z,1.00
2023-05-09T21:03:34.880Z,0.90
2023-05-09T21:06:02.448Z,1.15
2023-05-09T21:08:29.966Z,1.00
2023-05-09T21:10:57.866Z,0.90
2023-05-09T21:13:25.761Z,0.90
2023-05-09T21:15:53.433Z,0.90
2023-05-09T21:18:21.311Z,1.00
2023-05-09T21:20:48.979Z,0.90
2023-05-09T21:23:18.546Z,0.90
2023-05-09T21:25:46.393Z,1.07
2023-05-09T21:28:15.540Z,1.02
2023-05-09T21:30:43.041Z,1.08
2023-05-09T21:33:10.979Z,0.85
2023-05-09T21:35:38.462Z,0.90
2023-05-09T21:38:05.900Z,1.00
2023-05-09T21:40:33.707Z,0.80
2023-05-09T21:43:01.160Z,1.08
2023-05-09T21:45:28.625Z,0.90
2023-05-09T21:47:56.457Z,1.00
2023-05-09T21:50:24.642Z,1.10
2023-05-09T21:52:52.471Z,0.90
2023-05-09T21:55:20.176Z,1.02
2023-05-09T21:57:47.634Z,1.00
2023-05-09T22:00:16.763Z,1.30
2023-05-09T22:02:44.967Z,1.10
2023-05-09T22:05:12.763Z,1.05
2023-05-09T22:07:40.378Z,1.00
2023-05-09T22:10:08.746Z,1.35
2023-05-09T22:12:36.402Z,1.00
2023-05-09T22:15:04.392Z,1.10
2023-05-09T22:17:32.278Z,1.52
2023-05-09T22:19:59.830Z,1.30
2023-05-09T22:22:27.482Z,1.27
2023-05-09T22:24:55.296Z,1.48
2023-05-09T22:27:22.784Z,1.23
2023-05-09T22:29:50.372Z,0.82
2023-05-09T22:32:18.251Z,1.30
2023-05-09T22:34:48.854Z,1.33
2023-05-09T22:37:16.379Z,1.40
2023-05-09T22:39:46.245Z,1.10
2023-05-09T22:42:13.728Z,1.10
2023-05-09T22:44:41.510Z,1.23
2023-05-09T22:47:09.560Z,1.40
2023-05-09T22:49:37.438Z,1.55
2023-05-09T22:52:05.057Z,1.37
2023-05-09T22:54:33.285Z,1.08
2023-05-09T22:57:00.826Z,1.30
2023-05-09T22:59:28.301Z,1.40
2023-05-09T23:01:56.142Z,1.60
2023-05-09T23:04:23.680Z,1.20
2023-05-09T23:07:28.478Z,1.60
2023-05-09T23:10:51.718Z,1.20
2023-05-09T23:13:38.412Z,1.37
2023-05-09T23:16:10.782Z,1.50
2023-05-09T23:18:38.554Z,1.50
2023-05-09T23:21:06.174Z,1.60
2023-05-09T23:23:33.851Z,1.33
2023-05-09T23:26:01.578Z,1.58
2023-05-09T23:28:29.026Z,1.70
2023-05-09T23:30:56.576Z,1.87
2023-05-09T23:33:24.406Z,1.70
2023-05-09T23:35:51.864Z,1.73
2023-05-09T23:38:19.605Z,1.90
2023-05-09T23:40:47.358Z,1.95
2023-05-09T23:43:15.117Z,1.90
2023-05-09T23:45:42.658Z,1.95
2023-05-09T23:48:10.503Z,1.77
2023-05-09T23:50:37.963Z,2.00
2023-05-09T23:53:05.656Z,1.75
2023-05-09T23:55:33.530Z,1.90
2023-05-09T23:58:02.520Z,1.90
